Galvez, Louisiana
Current Conditions -  °F | °C
As of 3:55 AM on Sunday 23 Nov 2014 (Local Time) from KL38 Reporting Station
Overcast Overcast  
Wind Chill: 64°   Ceiling: 300
Heat Index: 64°   Visibility: 10mi
Dew Point: 64°   Wind: 7mph
Humidity: 100%   Direction: 70°ENE
Pressure: 29.74"   Gusts: NA
Location:  30.3065°N, 90.9499°W
Report Text: KL38 230955Z AUTO 07006KT 10SM OVC003 18/18 A2974 RMK AO2 T01750175
Loading
Personal Weather Stations






























Interactive Weather Map New forecast layout! Learn more

10-Day Weather Forecast

Advertisements
Track Severe Weather on mobile